Wilson, Texas
Current Conditions -  °F | °C
As of 2:53 AM on Friday 31 Oct 2014 (Local Time) from KLBB Reporting Station
Clear Clear  
Wind Chill: 39°   Ceiling: Unl
Heat Index: 43°   Visibility: 10mi
Dew Point: 32°   Wind: 7mph
Humidity: 65%   Direction: 10°N
Pressure: 30.35"   Gusts: NA
Location:  33.32°N, 101.72°W
Report Text: KLBB 310753Z 01006KT 10SM CLR 06/00 A3035 RMK AO2 SLP252 T00610000
Loading
Personal Weather Stations






























Interactive Weather Map
Tropical Storm Tracking
New forecast layout! Learn more

10-Day Weather Forecast

Advertisements
Track Severe Weather on mobile